createdAt,value
2023-03-26T00:01:02.386Z,99918.41
2023-03-26T00:03:28.791Z,99925.44
2023-03-26T00:06:06.410Z,99922.88
2023-03-26T00:08:36.321Z,99932.53
2023-03-26T00:11:03.663Z,99929.94
2023-03-26T00:13:30.120Z,99933.41
2023-03-26T00:15:56.509Z,99936.94
2023-03-26T00:18:22.943Z,99945.94
2023-03-26T00:20:49.368Z,99943.88
2023-03-26T00:23:15.829Z,99949.25
2023-03-26T00:25:42.334Z,99950.41
2023-03-26T00:28:09.252Z,99962.06
2023-03-26T00:30:35.737Z,99969.19
2023-03-26T00:33:02.696Z,99965.75
2023-03-26T00:35:29.176Z,99965.53
2023-03-26T00:37:55.634Z,99972.81
2023-03-26T00:40:22.090Z,99977.13
2023-03-26T00:42:48.521Z,99980.69
2023-03-26T00:45:14.929Z,99981.47
2023-03-26T00:47:41.349Z,99984.13
2023-03-26T00:50:08.239Z,99975.28
2023-03-26T00:52:34.625Z,99983.13
2023-03-26T00:55:01.067Z,99977.69
2023-03-26T00:57:35.007Z,99990.16
2023-03-26T01:00:02.156Z,99987.41
2023-03-26T01:02:28.662Z,99991.88
2023-03-26T01:04:57.655Z,100002.50
2023-03-26T01:07:25.488Z,100002.59
2023-03-26T01:09:51.896Z,100004.34
2023-03-26T01:12:20.932Z,100015.03
2023-03-26T01:14:47.465Z,100016.00
2023-03-26T01:17:13.946Z,100017.16
2023-03-26T01:20:02.190Z,100032.13
2023-03-26T01:22:28.671Z,100029.88
2023-03-26T01:24:55.169Z,100023.91
2023-03-26T01:27:56.773Z,100024.06
2023-03-26T01:30:32.617Z,100027.84
2023-03-26T01:33:20.551Z,100037.63
2023-03-26T01:35:49.886Z,100042.25
2023-03-26T01:38:34.642Z,100037.97
2023-03-26T01:41:04.228Z,100037.06
2023-03-26T01:43:39.785Z,100038.69
2023-03-26T01:46:07.883Z,100043.19
2023-03-26T01:48:39.716Z,100041.53
2023-03-26T01:51:06.403Z,100044.19
2023-03-26T01:53:33.646Z,100046.06
2023-03-26T01:56:06.219Z,100047.56
2023-03-26T01:58:38.060Z,100044.03
2023-03-26T02:01:19.765Z,100038.72
2023-03-26T02:04:17.704Z,100036.94
2023-03-26T02:07:03.494Z,100040.53
2023-03-26T02:09:31.221Z,100040.72
2023-03-26T02:11:57.769Z,100037.03
2023-03-26T02:14:24.574Z,100039.69
2023-03-26T02:16:50.997Z,100041.53
2023-03-26T02:19:17.431Z,100037.03
2023-03-26T02:21:43.841Z,100036.16
2023-03-26T02:24:10.259Z,100039.00
2023-03-26T02:26:36.692Z,100039.06
2023-03-26T02:29:03.172Z,100035.59
2023-03-26T02:31:29.703Z,100039.97
2023-03-26T02:33:56.427Z,100039.16
2023-03-26T02:36:23.260Z,100040.06
2023-03-26T02:38:49.872Z,100040.88
2023-03-26T02:41:16.534Z,100041.91
2023-03-26T02:43:42.989Z,100040.97
2023-03-26T02:46:09.510Z,100055.97
2023-03-26T02:48:35.946Z,100049.63
2023-03-26T02:51:02.687Z,100056.06
2023-03-26T02:53:29.130Z,100049.41
2023-03-26T02:55:56.953Z,100054.88
2023-03-26T02:58:23.463Z,100050.63
2023-03-26T03:00:49.896Z,100058.53
2023-03-26T03:03:16.329Z,100062.91
2023-03-26T03:05:42.792Z,100060.34
2023-03-26T03:08:09.689Z,100062.91
2023-03-26T03:10:36.160Z,100061.25
2023-03-26T03:13:02.606Z,100053.50
2023-03-26T03:15:29.032Z,100052.00
2023-03-26T03:17:55.477Z,100056.59
2023-03-26T03:20:21.921Z,100049.53
2023-03-26T03:22:48.388Z,100053.91
2023-03-26T03:25:14.936Z,100047.66
2023-03-26T03:27:41.692Z,100044.19
2023-03-26T03:30:08.518Z,100036.28
2023-03-26T03:32:35.015Z,100041.44
2023-03-26T03:35:01.436Z,100043.34
2023-03-26T03:37:27.890Z,100044.34
2023-03-26T03:39:54.300Z,100050.44
2023-03-26T03:42:20.745Z,100048.63
2023-03-26T03:44:47.200Z,100044.25
2023-03-26T03:47:13.646Z,100052.25
2023-03-26T03:49:40.445Z,100037.94
2023-03-26T03:52:07.020Z,100044.97
2023-03-26T03:54:33.446Z,100049.31
2023-03-26T03:56:59.911Z,100049.44
2023-03-26T03:59:26.379Z,100053.84
2023-03-26T04:01:52.816Z,100053.13
2023-03-26T04:04:19.262Z,100052.22
2023-03-26T04:06:45.704Z,100049.50
2023-03-26T04:09:12.129Z,100045.03
2023-03-26T04:11:38.536Z,100047.63
2023-03-26T04:14:05.010Z,100044.97
2023-03-26T04:16:31.492Z,100042.47
2023-03-26T04:18:57.930Z,100033.91
2023-03-26T04:21:24.352Z,100045.69
2023-03-26T04:23:50.779Z,100045.81
2023-03-26T04:26:17.654Z,100043.13
2023-03-26T04:28:52.037Z,100037.72
2023-03-26T04:31:20.143Z,100035.19
2023-03-26T04:33:46.617Z,100037.91
2023-03-26T04:36:13.842Z,100041.41
2023-03-26T04:38:41.345Z,100028.28
2023-03-26T04:41:10.233Z,100040.50
2023-03-26T04:43:36.709Z,100041.47
2023-03-26T04:46:03.198Z,100044.00
2023-03-26T04:48:29.666Z,100038.56
2023-03-26T04:50:56.170Z,100041.31
2023-03-26T04:53:22.609Z,100046.81
2023-03-26T04:55:55.224Z,100036.44
2023-03-26T04:58:21.817Z,100041.13
2023-03-26T05:00:48.318Z,100038.50
2023-03-26T05:03:14.815Z,100047.16
2023-03-26T05:05:41.229Z,100044.66
2023-03-26T05:08:07.652Z,100041.41
2023-03-26T05:10:34.065Z,100033.59
2023-03-26T05:13:00.507Z,100031.03
2023-03-26T05:15:26.925Z,100039.94
2023-03-26T05:17:53.370Z,100042.75
2023-03-26T05:20:27.231Z,100039.03
2023-03-26T05:22:53.679Z,100046.03
2023-03-26T05:25:20.193Z,100040.69
2023-03-26T05:27:46.682Z,100039.53
2023-03-26T05:30:17.581Z,100047.28
2023-03-26T05:32:44.110Z,100043.59
2023-03-26T05:35:10.730Z,100050.66
2023-03-26T05:37:37.148Z,100050.69
2023-03-26T05:40:03.918Z,100055.16
2023-03-26T05:42:30.375Z,100063.19
2023-03-26T05:44:56.851Z,100059.81
2023-03-26T05:47:23.344Z,100065.81
2023-03-26T05:49:49.821Z,100064.16
2023-03-26T05:52:16.268Z,100063.91
2023-03-26T05:54:42.685Z,100065.75
2023-03-26T05:57:09.136Z,100063.38
2023-03-26T05:59:35.543Z,100074.00
2023-03-26T06:02:02.035Z,100065.25
2023-03-26T06:04:28.647Z,100077.56
2023-03-26T06:06:55.297Z,100065.16
2023-03-26T06:09:21.687Z,100064.16
2023-03-26T06:11:48.139Z,100078.03
2023-03-26T06:14:14.518Z,100071.69
2023-03-26T06:16:40.957Z,100069.09
2023-03-26T06:19:07.412Z,100064.78
2023-03-26T06:21:33.926Z,100070.84
2023-03-26T06:24:00.335Z,100073.16
2023-03-26T06:26:26.749Z,100070.47
2023-03-26T06:28:53.173Z,100066.97
2023-03-26T06:31:19.626Z,100071.41
2023-03-26T06:33:46.059Z,100076.59
2023-03-26T06:36:12.517Z,100073.75
2023-03-26T06:38:39.032Z,100079.91
2023-03-26T06:41:05.998Z,100075.53
2023-03-26T06:43:33.917Z,100074.63
2023-03-26T06:46:04.087Z,100082.44
2023-03-26T06:48:30.879Z,100073.47
2023-03-26T06:50:57.305Z,100075.97
2023-03-26T06:53:23.741Z,100081.09
2023-03-26T06:55:50.195Z,100094.31
2023-03-26T06:58:16.762Z,100087.28
2023-03-26T07:00:43.324Z,100088.13
2023-03-26T07:03:09.754Z,100100.56
2023-03-26T07:05:36.165Z,100099.59
2023-03-26T07:08:02.599Z,100091.59
2023-03-26T07:10:29.083Z,100092.38
2023-03-26T07:12:55.537Z,100094.97
2023-03-26T07:15:21.965Z,100092.38
2023-03-26T07:17:48.398Z,100100.31
2023-03-26T07:20:14.845Z,100099.44
2023-03-26T07:22:41.561Z,100094.25
2023-03-26T07:25:08.865Z,100088.94
2023-03-26T07:27:46.744Z,100091.66
2023-03-26T07:30:46.696Z,100095.97
2023-03-26T07:33:41.201Z,100090.63
2023-03-26T07:36:13.533Z,100089.06
2023-03-26T07:38:52.651Z,100094.38
2023-03-26T07:41:45.341Z,100100.31
2023-03-26T07:44:32.691Z,100095.81
2023-03-26T07:47:00.786Z,100089.63
2023-03-26T07:49:27.542Z,100096.59
2023-03-26T07:51:54.162Z,100099.13
2023-03-26T07:54:20.817Z,100097.28
2023-03-26T07:57:07.215Z,100098.84
2023-03-26T07:59:40.053Z,100087.34
2023-03-26T08:02:41.066Z,100098.03
2023-03-26T08:05:25.665Z,100097.84
2023-03-26T08:08:10.905Z,100097.63
2023-03-26T08:11:07.405Z,100100.28
2023-03-26T08:13:36.779Z,100100.28
2023-03-26T08:16:21.814Z,100104.72
2023-03-26T08:19:11.288Z,100090.63
2023-03-26T08:21:41.844Z,100103.84
2023-03-26T08:24:13.797Z,100096.63
2023-03-26T08:26:43.600Z,100103.41
2023-03-26T08:29:18.528Z,100101.59
2023-03-26T08:31:44.953Z,100098.06
2023-03-26T08:34:11.527Z,100098.94
2023-03-26T08:36:38.015Z,100098.75
2023-03-26T08:39:04.928Z,100101.34
2023-03-26T08:41:52.587Z,100106.50
2023-03-26T08:44:53.146Z,100109.00
2023-03-26T08:47:47.223Z,100110.69
2023-03-26T08:50:39.717Z,100113.06
2023-03-26T08:53:35.125Z,100102.34
2023-03-26T08:56:22.278Z,100107.72
2023-03-26T08:58:57.821Z,100107.91
2023-03-26T09:01:43.252Z,100106.03
2023-03-26T09:04:18.407Z,100098.03
2023-03-26T09:07:22.261Z,100099.81
2023-03-26T09:09:57.385Z,100104.09
2023-03-26T09:12:35.791Z,100102.69
2023-03-26T09:15:20.482Z,100101.50
2023-03-26T09:18:19.192Z,100098.75
2023-03-26T09:21:02.121Z,100099.50
2023-03-26T09:23:34.472Z,100096.06
2023-03-26T09:26:22.547Z,100107.41
2023-03-26T09:29:32.285Z,100110.13
2023-03-26T09:32:27.097Z,100101.22
2023-03-26T09:35:13.642Z,100110.50
2023-03-26T09:38:14.589Z,100109.13
2023-03-26T09:40:53.410Z,100104.63
2023-03-26T09:43:34.877Z,100101.34
2023-03-26T09:46:20.298Z,100093.88
2023-03-26T09:49:01.885Z,100105.72
2023-03-26T09:51:34.854Z,100107.50
2023-03-26T09:54:17.498Z,100120.66
2023-03-26T09:57:05.913Z,100126.03
2023-03-26T09:59:54.159Z,100119.44
2023-03-26T10:02:20.471Z,100120.09
2023-03-26T10:05:04.924Z,100124.09
2023-03-26T10:07:49.676Z,100110.72
2023-03-26T10:10:40.345Z,100113.31
2023-03-26T10:13:39.076Z,100114.75
2023-03-26T10:16:31.861Z,100105.63
2023-03-26T10:19:27.396Z,100119.34
2023-03-26T10:22:20.705Z,100119.88
2023-03-26T10:24:51.552Z,100119.50
2023-03-26T10:27:36.801Z,100116.78
2023-03-26T10:30:23.411Z,100115.88
2023-03-26T10:33:26.435Z,100117.59
2023-03-26T10:36:06.469Z,100118.63
2023-03-26T10:38:32.811Z,100122.75
2023-03-26T10:41:18.258Z,100121.31
2023-03-26T10:44:09.376Z,100123.09
2023-03-26T10:47:14.340Z,100119.47
2023-03-26T10:50:10.176Z,100120.94
2023-03-26T10:53:01.548Z,100111.44
2023-03-26T10:55:39.925Z,100110.66
2023-03-26T10:58:25.518Z,100111.75
2023-03-26T11:01:33.464Z,100110.94
2023-03-26T11:04:32.753Z,100113.00
2023-03-26T11:07:04.473Z,100109.69
2023-03-26T11:09:53.543Z,100113.81
2023-03-26T11:12:29.061Z,100112.59
2023-03-26T11:15:05.923Z,100112.03
2023-03-26T11:17:44.552Z,100105.22
2023-03-26T11:20:23.016Z,100111.72
2023-03-26T11:22:58.553Z,100110.47
2023-03-26T11:25:45.182Z,100109.63
2023-03-26T11:28:15.187Z,100113.31
2023-03-26T11:31:13.765Z,100105.81
2023-03-26T11:33:45.645Z,100107.28
2023-03-26T11:36:17.054Z,100101.41
2023-03-26T11:38:47.494Z,100119.25
2023-03-26T11:41:22.737Z,100108.88
2023-03-26T11:44:29.151Z,100108.44
2023-03-26T11:46:57.199Z,100108.00
2023-03-26T11:49:23.679Z,100100.94
2023-03-26T11:51:51.328Z,100093.38
2023-03-26T11:54:17.757Z,100099.59
2023-03-26T11:57:05.735Z,100095.38
2023-03-26T11:59:58.858Z,100088.50
2023-03-26T12:02:37.733Z,100088.88
2023-03-26T12:05:16.520Z,100092.09
2023-03-26T12:07:49.416Z,100093.75
2023-03-26T12:10:35.075Z,100092.03
2023-03-26T12:13:39.232Z,100089.94
2023-03-26T12:16:13.804Z,100098.41
2023-03-26T12:18:43.784Z,100095.63
2023-03-26T12:21:15.060Z,100090.69
2023-03-26T12:23:51.859Z,100088.34
2023-03-26T12:26:39.516Z,100085.88
2023-03-26T12:29:13.746Z,100091.22
2023-03-26T12:31:52.124Z,100089.34
2023-03-26T12:34:19.887Z,100083.69
2023-03-26T12:36:55.642Z,100091.44
2023-03-26T12:40:09.944Z,100088.97
2023-03-26T12:44:49.664Z,100083.44
2023-03-26T12:45:15.825Z,100083.25
2023-03-26T12:47:57.774Z,100094.00
2023-03-26T12:50:53.520Z,100090.06
2023-03-26T12:53:29.260Z,100095.28
2023-03-26T12:56:05.694Z,100100.63
2023-03-26T12:58:51.631Z,100093.75
2023-03-26T13:01:36.216Z,100099.44
2023-03-26T13:04:28.796Z,100092.38
2023-03-26T13:07:00.849Z,100088.19
2023-03-26T13:09:37.482Z,100091.00
2023-03-26T13:12:08.199Z,100086.88
2023-03-26T13:14:50.058Z,100082.75
2023-03-26T13:17:38.400Z,100070.06
2023-03-26T13:20:19.348Z,100086.19
2023-03-26T13:22:58.506Z,100074.44
2023-03-26T13:25:55.278Z,100079.78
2023-03-26T13:28:36.009Z,100072.25
2023-03-26T13:31:10.804Z,100077.34
2023-03-26T13:33:55.092Z,100085.72
2023-03-26T13:36:47.773Z,100084.63
2023-03-26T13:39:44.667Z,100069.78
2023-03-26T13:42:47.334Z,100069.00
2023-03-26T13:45:23.034Z,100067.78
2023-03-26T13:47:49.921Z,100077.09
2023-03-26T13:50:26.414Z,100075.13
2023-03-26T13:52:59.743Z,100065.09
2023-03-26T13:55:36.875Z,100077.22
2023-03-26T13:58:16.554Z,100069.63
2023-03-26T14:00:51.922Z,100072.41
2023-03-26T14:03:41.965Z,100068.41
2023-03-26T14:06:40.812Z,100071.94
2023-03-26T14:09:29.027Z,100077.69
2023-03-26T14:11:55.368Z,100076.63
2023-03-26T14:14:57.229Z,100074.56
2023-03-26T14:17:53.554Z,100077.06
2023-03-26T14:20:44.632Z,100080.03
2023-03-26T14:23:38.806Z,100074.06
2023-03-26T14:26:33.316Z,100086.94
2023-03-26T14:29:08.812Z,100077.16
2023-03-26T14:32:05.646Z,100090.38
2023-03-26T14:35:03.198Z,100088.34
2023-03-26T14:37:35.468Z,100079.69
2023-03-26T14:40:30.230Z,100081.91
2023-03-26T14:43:21.162Z,100075.38
2023-03-26T14:46:05.567Z,100076.38
2023-03-26T14:48:50.098Z,100072.53
2023-03-26T14:51:41.806Z,100080.44
2023-03-26T14:54:20.129Z,100074.88
2023-03-26T14:56:57.795Z,100081.50
2023-03-26T14:59:30.220Z,100085.31
2023-03-26T15:02:21.778Z,100088.97
2023-03-26T15:04:54.191Z,100077.31
2023-03-26T15:07:46.340Z,100081.88
2023-03-26T15:10:35.464Z,100089.13
2023-03-26T15:13:39.478Z,100084.91
2023-03-26T15:16:12.011Z,100082.56
2023-03-26T15:18:50.827Z,100085.00
2023-03-26T15:21:32.468Z,100082.19
2023-03-26T15:24:23.666Z,100088.53
2023-03-26T15:27:11.619Z,100086.34
2023-03-26T15:29:48.420Z,100079.19
2023-03-26T15:32:36.544Z,100086.25
2023-03-26T15:35:26.969Z,100088.38
2023-03-26T15:38:25.725Z,100087.38
2023-03-26T15:41:24.227Z,100092.72
2023-03-26T15:44:24.059Z,100079.94
2023-03-26T15:46:58.108Z,100100.97
2023-03-26T15:49:30.085Z,100094.75
2023-03-26T15:52:24.608Z,100094.78
2023-03-26T15:55:18.108Z,100101.38
2023-03-26T15:57:53.148Z,100098.09
2023-03-26T16:00:23.298Z,100104.72
2023-03-26T16:02:52.759Z,100105.28
2023-03-26T16:05:47.036Z,100109.56
2023-03-26T16:08:35.229Z,100114.94
2023-03-26T16:11:02.934Z,100115.44
2023-03-26T16:13:42.747Z,100110.28
2023-03-26T16:16:24.910Z,100109.13
2023-03-26T16:19:36.660Z,100123.75
2023-03-26T16:22:05.714Z,100119.50
2023-03-26T16:24:40.532Z,100129.44
2023-03-26T16:27:30.111Z,100122.06
2023-03-26T16:30:28.722Z,100121.66
2023-03-26T16:32:57.758Z,100123.06
2023-03-26T16:35:39.475Z,100124.91
2023-03-26T16:38:16.322Z,100128.22
2023-03-26T16:40:59.954Z,100128.59
2023-03-26T16:43:49.461Z,100131.25
2023-03-26T16:46:43.878Z,100133.50
2023-03-26T16:49:39.248Z,100137.41
2023-03-26T16:52:06.307Z,100138.84
2023-03-26T16:54:55.280Z,100146.06
2023-03-26T16:57:41.248Z,100146.97
2023-03-26T17:00:10.806Z,100155.84
2023-03-26T17:03:08.232Z,100154.31
2023-03-26T17:05:44.947Z,100162.38
2023-03-26T17:08:36.324Z,100161.69
2023-03-26T17:11:42.596Z,100165.25
2023-03-26T17:14:22.682Z,100173.22
2023-03-26T17:17:03.758Z,100179.47
2023-03-26T17:19:45.648Z,100175.72
2023-03-26T17:22:30.035Z,100183.25
2023-03-26T17:25:01.818Z,100181.91
2023-03-26T17:27:43.498Z,100188.88
2023-03-26T17:30:42.004Z,100193.84
2023-03-26T17:33:21.392Z,100202.94
2023-03-26T17:35:48.723Z,100194.19
2023-03-26T17:38:18.083Z,100198.03
2023-03-26T17:40:58.110Z,100204.47
2023-03-26T17:43:43.541Z,100208.00
2023-03-26T17:46:25.147Z,100208.38
2023-03-26T17:49:00.360Z,100221.59
2023-03-26T17:51:45.240Z,100227.47
2023-03-26T17:54:21.905Z,100230.97
2023-03-26T17:56:48.670Z,100237.41
2023-03-26T17:59:19.018Z,100235.78
2023-03-26T18:01:45.483Z,100238.00
2023-03-26T18:04:15.159Z,100236.38
2023-03-26T18:06:57.470Z,100246.25
2023-03-26T18:09:45.679Z,100252.63
2023-03-26T18:12:48.889Z,100252.00
2023-03-26T18:15:22.422Z,100256.50
2023-03-26T18:17:49.873Z,100260.91
2023-03-26T18:20:21.543Z,100263.06
2023-03-26T18:22:47.958Z,100263.22
2023-03-26T18:25:30.190Z,100274.91
2023-03-26T18:27:56.693Z,100275.91
2023-03-26T18:30:23.421Z,100286.53
2023-03-26T18:33:00.933Z,100293.59
2023-03-26T18:35:46.052Z,100294.88
2023-03-26T18:38:17.309Z,100295.97
2023-03-26T18:40:43.709Z,100301.31
2023-03-26T18:43:28.663Z,100302.09
2023-03-26T18:46:00.777Z,100305.75
2023-03-26T18:48:27.848Z,100310.22
2023-03-26T18:51:00.605Z,100309.31
2023-03-26T18:53:38.386Z,100315.50
2023-03-26T18:56:26.515Z,100317.31
2023-03-26T18:58:56.098Z,100321.69
2023-03-26T19:01:25.746Z,100320.97
2023-03-26T19:03:52.476Z,100330.78
2023-03-26T19:06:18.943Z,100322.09
2023-03-26T19:08:45.466Z,100331.91
2023-03-26T19:11:11.943Z,100347.75
2023-03-26T19:13:39.153Z,100338.88
2023-03-26T19:16:09.414Z,100346.19
2023-03-26T19:18:36.134Z,100349.00
2023-03-26T19:21:02.604Z,100348.94
2023-03-26T19:23:34.450Z,100348.00
2023-03-26T19:26:02.019Z,100358.50
2023-03-26T19:28:39.590Z,100349.91
2023-03-26T19:31:15.129Z,100353.59
2023-03-26T19:33:42.792Z,100347.47
2023-03-26T19:36:19.404Z,100352.78
2023-03-26T19:39:01.551Z,100364.28
2023-03-26T19:41:34.514Z,100368.91
2023-03-26T19:44:02.386Z,100379.53
2023-03-26T19:46:32.181Z,100386.69
2023-03-26T19:48:58.550Z,100383.34
2023-03-26T19:51:31.518Z,100381.63
2023-03-26T19:53:59.390Z,100385.44
2023-03-26T19:56:25.842Z,100390.56
2023-03-26T19:58:52.598Z,100397.72
2023-03-26T20:01:26.043Z,100392.34
2023-03-26T20:03:54.771Z,100393.44
2023-03-26T20:06:30.762Z,100402.41
2023-03-26T20:09:00.899Z,100405.91
2023-03-26T20:11:31.495Z,100409.56
2023-03-26T20:13:57.948Z,100416.56
2023-03-26T20:16:28.885Z,100412.28
2023-03-26T20:18:55.712Z,100419.19
2023-03-26T20:21:22.302Z,100420.22
2023-03-26T20:23:48.762Z,100420.41
2023-03-26T20:26:15.908Z,100423.94
2023-03-26T20:28:48.095Z,100429.34
2023-03-26T20:31:17.507Z,100433.81
2023-03-26T20:33:44.258Z,100433.91
2023-03-26T20:36:13.707Z,100434.69
2023-03-26T20:38:40.742Z,100440.81
2023-03-26T20:41:20.142Z,100441.81
2023-03-26T20:43:46.604Z,100439.19
2023-03-26T20:46:17.629Z,100447.25
2023-03-26T20:48:44.488Z,100445.53
2023-03-26T20:51:11.223Z,100448.31
2023-03-26T20:53:37.665Z,100449.06
2023-03-26T20:56:04.394Z,100457.88
2023-03-26T20:58:32.309Z,100460.59
2023-03-26T21:01:03.207Z,100462.41
2023-03-26T21:03:29.706Z,100464.28
2023-03-26T21:05:59.846Z,100464.25
2023-03-26T21:08:26.568Z,100474.81
2023-03-26T21:10:53.407Z,100476.56
2023-03-26T21:13:25.871Z,100483.63
2023-03-26T21:15:52.624Z,100481.00
2023-03-26T21:18:19.337Z,100489.91
2023-03-26T21:21:21.084Z,100487.34
2023-03-26T21:23:54.811Z,100483.84
2023-03-26T21:26:29.522Z,100499.63
2023-03-26T21:28:56.144Z,100500.56
2023-03-26T21:31:23.238Z,100503.28
2023-03-26T21:33:52.424Z,100506.88
2023-03-26T21:36:19.166Z,100514.03
2023-03-26T21:38:46.115Z,100509.59
2023-03-26T21:41:33.024Z,100518.44
2023-03-26T21:43:59.748Z,100513.25
2023-03-26T21:46:26.557Z,100522.94
2023-03-26T21:48:53.333Z,100518.53
2023-03-26T21:51:20.126Z,100511.69
2023-03-26T21:53:46.949Z,100535.41
2023-03-26T21:56:45.418Z,100545.94
2023-03-26T21:59:44.176Z,100539.78
2023-03-26T22:02:19.615Z,100554.81
2023-03-26T22:04:52.009Z,100558.34
2023-03-26T22:07:23.444Z,100551.38
2023-03-26T22:09:50.238Z,100556.66
2023-03-26T22:12:16.642Z,100562.78
2023-03-26T22:14:43.082Z,100560.16
2023-03-26T22:17:09.492Z,100560.22
2023-03-26T22:19:35.991Z,100569.84
2023-03-26T22:22:02.534Z,100577.75
2023-03-26T22:24:28.949Z,100572.56
2023-03-26T22:26:55.451Z,100577.81
2023-03-26T22:29:21.849Z,100572.53
2023-03-26T22:31:50.378Z,100588.38
2023-03-26T22:34:16.814Z,100584.91
2023-03-26T22:36:43.263Z,100598.97
2023-03-26T22:39:09.648Z,100597.19
2023-03-26T22:41:36.074Z,100606.88
2023-03-26T22:44:16.941Z,100608.63
2023-03-26T22:46:45.916Z,100613.91
2023-03-26T22:49:12.341Z,100616.53
2023-03-26T22:51:38.777Z,100615.72
2023-03-26T22:54:05.219Z,100626.28
2023-03-26T22:56:32.059Z,100629.81
2023-03-26T22:58:58.941Z,100627.19
2023-03-26T23:01:25.386Z,100635.06
2023-03-26T23:03:51.869Z,100631.59
2023-03-26T23:06:18.432Z,100641.22
2023-03-26T23:08:44.882Z,100645.66
2023-03-26T23:11:12.336Z,100651.78
2023-03-26T23:13:39.886Z,100650.91
2023-03-26T23:16:06.870Z,100646.50
2023-03-26T23:18:33.379Z,100650.91
2023-03-26T23:21:02.227Z,100656.22
2023-03-26T23:23:30.693Z,100663.22
2023-03-26T23:26:00.301Z,100664.13
2023-03-26T23:28:27.382Z,100660.63
2023-03-26T23:30:54.263Z,100669.41
2023-03-26T23:33:21.601Z,100670.28
2023-03-26T23:35:49.378Z,100672.06
2023-03-26T23:38:15.915Z,100670.28
2023-03-26T23:40:45.495Z,100672.94
2023-03-26T23:43:25.805Z,100672.94
2023-03-26T23:45:52.602Z,100682.59
2023-03-26T23:48:20.837Z,100679.94
2023-03-26T23:50:47.256Z,100679.94
2023-03-26T23:53:14.197Z,100684.34
2023-03-26T23:55:40.608Z,100695.75
2023-03-26T23:58:07.047Z,100698.38
